ACA815 LFMN-CYUL
Flight info
| Callsign | ACA815 |
|---|---|
| Flight time | N/A |
| Altitude | 34000 |
| Route | BADOD DCT NEDRU DCT LTP DCT BULOL DCT IDAVO DCT BAGBI DCT SIZZA DCT CHABY DCT AMODO DCT COHPA/N0466F280 UM729 RESMI UN491 LGL/N0474F360 UN502 JSY/N0474F380 DCT LIZAD DCT NAKID DCT EVCOR DCT LEDGO DCT NEBIN/M083F390 NATD IBERG/N0468F400 DCT MIILS DCT KEBIG ROCKT3 |
| Aircraft | A333/H-SDE3GHIJ2J3J5M1RVWXY/LB2D1 |
Departure
| Time | 2026-05-07 09:49 |
|---|---|
| Airport | Nice-Côte d'Azur Airport (LFMN) |
Arrival
| Time | N/A |
|---|---|
| Airport | Montreal / Pierre Elliott Trudeau International Airport (CYUL) |
| Time | Latitude | Longitude | Altitude | Speed | Heading |
|---|---|---|---|---|---|
| 2026-05-07 09:43 | 43.65803 | 7.20525 | 32 ft | 0 kts | 334° |
| 2026-05-07 09:45 | 43.65783 | 7.20538 | 32 ft | 7 kts | 333° |
| 2026-05-07 09:46 | 43.65753 | 7.20559 | 31 ft | 1 kts | 333° |
| 2026-05-07 09:46 | 43.65759 | 7.20558 | 31 ft | 6 kts | 353° |
| 2026-05-07 09:46 | 43.65814 | 7.20666 | 32 ft | 23 kts | 66° |
| 2026-05-07 09:46 | 43.65839 | 7.20928 | 30 ft | 36 kts | 73° |
| 2026-05-07 09:47 | 43.66022 | 7.21243 | 33 ft | 46 kts | 45° |
| 2026-05-07 09:47 | 43.66244 | 7.21549 | 37 ft | 43 kts | 46° |
| 2026-05-07 09:47 | 43.66466 | 7.21823 | 33 ft | 42 kts | 43° |
| 2026-05-07 09:47 | 43.66656 | 7.22121 | 30 ft | 40 kts | 48° |
| 2026-05-07 09:48 | 43.66798 | 7.22331 | 32 ft | 24 kts | 71° |
| 2026-05-07 09:48 | 43.66737 | 7.22513 | 31 ft | 19 kts | 133° |
| 2026-05-07 09:48 | 43.66634 | 7.22641 | 27 ft | 20 kts | 141° |
| 2026-05-07 09:48 | 43.66506 | 7.22730 | 26 ft | 30 kts | 194° |
| 2026-05-07 09:49 | 43.66161 | 7.22303 | 26 ft | 104 kts | 225° |
| 2026-05-07 09:49 | 43.65483 | 7.21373 | 28 ft | 168 kts | 223° |
| 2026-05-07 09:49 | 43.64621 | 7.20237 | 701 ft | 167 kts | 220° |
| 2026-05-07 09:49 | 43.63760 | 7.19208 | 1291 ft | 182 kts | 217° |
| 2026-05-07 09:50 | 43.62615 | 7.18077 | 1684 ft | 220 kts | 214° |
| 2026-05-07 09:50 | 43.61662 | 7.16365 | 2527 ft | 241 kts | 248° |
| 2026-05-07 09:50 | 43.61476 | 7.13958 | 3239 ft | 269 kts | 281° |
| 2026-05-07 09:50 | 43.62231 | 7.11683 | 4484 ft | 270 kts | 310° |
| 2026-05-07 09:51 | 43.63691 | 7.10166 | 5709 ft | 270 kts | 339° |
| 2026-05-07 09:51 | 43.65431 | 7.09359 | 6900 ft | 270 kts | 334° |
| 2026-05-07 09:51 | 43.67030 | 7.08036 | 7899 ft | 277 kts | 326° |
| 2026-05-07 09:51 | 43.68624 | 7.06523 | 8978 ft | 280 kts | 323° |
| 2026-05-07 09:52 | 43.70184 | 7.04977 | 10066 ft | 280 kts | 323° |
| 2026-05-07 09:52 | 43.71787 | 7.03366 | 10650 ft | 300 kts | 322° |
| 2026-05-07 09:52 | 43.73600 | 7.01538 | 10612 ft | 342 kts | 323° |
| 2026-05-07 09:52 | 43.75562 | 6.99561 | 11311 ft | 357 kts | 323° |
| 2026-05-07 09:53 | 43.77561 | 6.97544 | 12424 ft | 359 kts | 322° |
| 2026-05-07 09:53 | 43.79579 | 6.95504 | 13262 ft | 367 kts | 322° |
| 2026-05-07 09:53 | 43.81611 | 6.93449 | 13878 ft | 367 kts | 322° |
| 2026-05-07 09:53 | 43.83716 | 6.91320 | 14308 ft | 374 kts | 322° |
| 2026-05-07 09:54 | 43.85813 | 6.89196 | 14906 ft | 375 kts | 322° |
| 2026-05-07 09:54 | 43.87914 | 6.87064 | 15482 ft | 377 kts | 322° |
| 2026-05-07 09:54 | 43.90004 | 6.84945 | 16031 ft | 378 kts | 322° |
| 2026-05-07 09:54 | 43.92122 | 6.82792 | 16561 ft | 380 kts | 322° |
| 2026-05-07 09:55 | 43.94275 | 6.80604 | 17044 ft | 383 kts | 322° |
| 2026-05-07 09:55 | 43.96412 | 6.78428 | 17574 ft | 385 kts | 321° |
| 2026-05-07 09:55 | 43.98578 | 6.76222 | 18076 ft | 386 kts | 321° |
| 2026-05-07 09:55 | 44.00728 | 6.74031 | 18553 ft | 389 kts | 321° |
| 2026-05-07 09:56 | 44.02909 | 6.71808 | 19042 ft | 391 kts | 321° |
| 2026-05-07 09:56 | 44.05126 | 6.69543 | 19471 ft | 395 kts | 321° |
| 2026-05-07 09:56 | 44.07328 | 6.67294 | 19948 ft | 397 kts | 321° |
| 2026-05-07 09:56 | 44.09544 | 6.65026 | 20417 ft | 398 kts | 321° |
| 2026-05-07 09:57 | 44.11766 | 6.62749 | 20842 ft | 401 kts | 321° |
| 2026-05-07 09:57 | 44.14013 | 6.60446 | 21223 ft | 404 kts | 321° |
| 2026-05-07 09:57 | 44.16287 | 6.58113 | 21638 ft | 406 kts | 321° |
| 2026-05-07 09:57 | 44.18563 | 6.55773 | 22067 ft | 408 kts | 321° |
| 2026-05-07 09:58 | 44.20834 | 6.53440 | 22529 ft | 408 kts | 321° |
| 2026-05-07 09:58 | 44.23235 | 6.51357 | 22891 ft | 413 kts | 327° |
| 2026-05-07 09:58 | 44.25727 | 6.49352 | 23280 ft | 415 kts | 327° |
| 2026-05-07 09:58 | 44.28231 | 6.47324 | 23625 ft | 417 kts | 327° |
| 2026-05-07 09:59 | 44.30740 | 6.45291 | 24017 ft | 419 kts | 327° |
| 2026-05-07 09:59 | 44.33248 | 6.43253 | 24410 ft | 420 kts | 327° |
| 2026-05-07 09:59 | 44.35764 | 6.41209 | 24722 ft | 423 kts | 327° |
| 2026-05-07 09:59 | 44.38322 | 6.39128 | 25028 ft | 425 kts | 327° |
| 2026-05-07 10:00 | 44.40885 | 6.37037 | 25364 ft | 428 kts | 327° |
| 2026-05-07 10:00 | 44.43451 | 6.34945 | 25705 ft | 429 kts | 326° |
| 2026-05-07 10:00 | 44.46023 | 6.32845 | 26072 ft | 430 kts | 326° |
| 2026-05-07 10:00 | 44.48600 | 6.30738 | 26346 ft | 433 kts | 326° |
| 2026-05-07 10:01 | 44.51220 | 6.28597 | 26654 ft | 436 kts | 326° |
| 2026-05-07 10:01 | 44.53842 | 6.26448 | 27045 ft | 436 kts | 326° |
| 2026-05-07 10:01 | 44.56457 | 6.24303 | 27326 ft | 439 kts | 326° |
| 2026-05-07 10:01 | 44.59097 | 6.22137 | 27628 ft | 441 kts | 326° |
| 2026-05-07 10:02 | 44.61741 | 6.19963 | 27957 ft | 442 kts | 326° |
| 2026-05-07 10:02 | 44.64380 | 6.17794 | 28248 ft | 443 kts | 326° |
| 2026-05-07 10:02 | 44.67030 | 6.15611 | 28509 ft | 445 kts | 326° |
| 2026-05-07 10:02 | 44.69714 | 6.13398 | 28785 ft | 447 kts | 326° |
| 2026-05-07 10:03 | 44.72388 | 6.11191 | 29037 ft | 449 kts | 326° |
| 2026-05-07 10:03 | 44.75082 | 6.08965 | 29254 ft | 451 kts | 326° |
| 2026-05-07 10:03 | 44.77772 | 6.06743 | 29578 ft | 450 kts | 325° |
| 2026-05-07 10:03 | 44.80476 | 6.04504 | 29914 ft | 450 kts | 325° |
| 2026-05-07 10:04 | 44.83142 | 6.02296 | 30293 ft | 448 kts | 325° |
| 2026-05-07 10:04 | 44.85822 | 6.00074 | 30643 ft | 446 kts | 325° |
| 2026-05-07 10:04 | 44.88482 | 5.97862 | 30936 ft | 446 kts | 325° |
| 2026-05-07 10:04 | 44.91150 | 5.95643 | 31197 ft | 446 kts | 325° |
| 2026-05-07 10:05 | 44.93802 | 5.93437 | 31455 ft | 445 kts | 325° |
| 2026-05-07 10:05 | 44.96465 | 5.91215 | 31702 ft | 444 kts | 325° |
| 2026-05-07 10:05 | 44.99137 | 5.88987 | 31918 ft | 444 kts | 325° |
| 2026-05-07 10:05 | 45.01775 | 5.86785 | 32158 ft | 444 kts | 325° |
| 2026-05-07 10:06 | 45.04445 | 5.84549 | 32407 ft | 444 kts | 325° |
| 2026-05-07 10:06 | 45.07086 | 5.82341 | 32665 ft | 442 kts | 325° |
| 2026-05-07 10:06 | 45.09679 | 5.80024 | 32901 ft | 440 kts | 322° |
| 2026-05-07 10:06 | 45.12244 | 5.77675 | 33067 ft | 441 kts | 322° |
| 2026-05-07 10:07 | 45.14801 | 5.75333 | 33239 ft | 441 kts | 322° |
| 2026-05-07 10:07 | 45.17388 | 5.72966 | 33470 ft | 440 kts | 322° |
| 2026-05-07 10:07 | 45.19938 | 5.70629 | 33693 ft | 439 kts | 322° |
| 2026-05-07 10:07 | 45.22501 | 5.68276 | 33859 ft | 439 kts | 322° |
| 2026-05-07 10:08 | 45.25068 | 5.65919 | 33993 ft | 440 kts | 322° |
| 2026-05-07 10:08 | 45.30225 | 5.61176 | 33986 ft | 448 kts | 323° |
| 2026-05-07 10:09 | 45.35457 | 5.56353 | 33990 ft | 448 kts | 323° |
| 2026-05-07 10:09 | 45.40659 | 5.51548 | 33993 ft | 447 kts | 323° |
| 2026-05-07 10:10 | 45.45857 | 5.46733 | 34003 ft | 447 kts | 323° |
| 2026-05-07 10:10 | 45.51244 | 5.42354 | 34007 ft | 452 kts | 334° |
| 2026-05-07 10:11 | 45.57062 | 5.38857 | 33987 ft | 453 kts | 333° |
| 2026-05-07 10:11 | 45.62758 | 5.35163 | 34006 ft | 451 kts | 330° |
| 2026-05-07 10:12 | 45.68297 | 5.31050 | 34007 ft | 449 kts | 327° |
| 2026-05-07 10:12 | 45.73667 | 5.26516 | 34016 ft | 447 kts | 324° |
| 2026-05-07 10:13 | 45.78801 | 5.21618 | 34015 ft | 445 kts | 321° |
| 2026-05-07 10:13 | 45.83754 | 5.16305 | 34009 ft | 443 kts | 318° |
| 2026-05-07 10:14 | 45.88462 | 5.10643 | 34013 ft | 442 kts | 315° |
| 2026-05-07 10:14 | 45.92941 | 5.04615 | 34021 ft | 441 kts | 312° |
| 2026-05-07 10:15 | 45.97143 | 4.98287 | 34016 ft | 440 kts | 309° |
| 2026-05-07 10:15 | 46.01122 | 4.91577 | 34006 ft | 439 kts | 306° |
| 2026-05-07 10:16 | 46.04805 | 4.84607 | 34014 ft | 439 kts | 303° |
| 2026-05-07 10:16 | 46.08211 | 4.77342 | 34014 ft | 440 kts | 301° |
| 2026-05-07 10:17 | 46.11318 | 4.69832 | 34016 ft | 439 kts | 297° |
| 2026-05-07 10:17 | 46.14193 | 4.62088 | 34008 ft | 440 kts | 300° |
| 2026-05-07 10:17 | 46.16134 | 4.58709 | 34008 ft | 444 kts | 315° |
| 2026-05-07 10:18 | 46.18464 | 4.55736 | 34029 ft | 447 kts | 319° |
| 2026-05-07 10:18 | 46.21135 | 4.53409 | 33980 ft | 454 kts | 335° |
| 2026-05-07 10:18 | 46.24161 | 4.52173 | 34038 ft | 459 kts | 345° |
| 2026-05-07 10:19 | 46.30408 | 4.50272 | 34000 ft | 460 kts | 345° |
| 2026-05-07 10:19 | 46.36632 | 4.48375 | 34009 ft | 458 kts | 345° |
| 2026-05-07 10:20 | 46.42847 | 4.46476 | 34009 ft | 458 kts | 345° |
| 2026-05-07 10:20 | 46.49117 | 4.44556 | 34012 ft | 459 kts | 345° |
| 2026-05-07 10:21 | 46.55342 | 4.42646 | 34013 ft | 458 kts | 345° |
| 2026-05-07 10:21 | 46.61570 | 4.40731 | 34012 ft | 459 kts | 345° |
| 2026-05-07 10:22 | 46.67817 | 4.38804 | 34004 ft | 458 kts | 346° |
| 2026-05-07 10:22 | 46.74031 | 4.36884 | 33994 ft | 458 kts | 346° |
| 2026-05-07 10:23 | 46.80226 | 4.34964 | 34001 ft | 459 kts | 345° |
| 2026-05-07 10:23 | 46.86489 | 4.33021 | 34000 ft | 459 kts | 345° |
| 2026-05-07 10:24 | 46.92681 | 4.31091 | 33994 ft | 459 kts | 345° |
| 2026-05-07 10:24 | 46.98947 | 4.29137 | 33994 ft | 459 kts | 345° |
| 2026-05-07 10:25 | 47.05151 | 4.27196 | 34002 ft | 458 kts | 345° |
| 2026-05-07 10:25 | 47.11377 | 4.25245 | 34003 ft | 458 kts | 345° |
| 2026-05-07 10:26 | 47.17591 | 4.23292 | 34001 ft | 458 kts | 345° |
| 2026-05-07 10:26 | 47.23828 | 4.21326 | 34003 ft | 458 kts | 345° |
| 2026-05-07 10:27 | 47.30053 | 4.19362 | 34002 ft | 459 kts | 345° |
| 2026-05-07 10:27 | 47.36256 | 4.17399 | 34006 ft | 459 kts | 345° |
| 2026-05-07 10:28 | 47.42516 | 4.15412 | 34005 ft | 459 kts | 345° |
| 2026-05-07 10:28 | 47.48733 | 4.13435 | 34007 ft | 460 kts | 346° |
| 2026-05-07 10:29 | 47.54962 | 4.11315 | 33996 ft | 457 kts | 339° |
| 2026-05-07 10:29 | 47.60700 | 4.07505 | 34020 ft | 456 kts | 334° |
| 2026-05-07 10:30 | 47.69382 | 4.01720 | 34014 ft | 456 kts | 334° |
| 2026-05-07 10:30 | 47.75130 | 3.97894 | 34015 ft | 457 kts | 334° |
| 2026-05-07 10:31 | 47.80716 | 3.93480 | 33993 ft | 453 kts | 318° |
| 2026-05-07 10:31 | 47.85038 | 3.86724 | 34022 ft | 455 kts | 313° |
| 2026-05-07 10:32 | 47.89410 | 3.79966 | 34020 ft | 454 kts | 313° |
| 2026-05-07 10:32 | 47.93789 | 3.73231 | 34019 ft | 454 kts | 313° |
| 2026-05-07 10:33 | 47.98193 | 3.66442 | 34028 ft | 455 kts | 313° |
| 2026-05-07 10:33 | 48.02566 | 3.59686 | 34031 ft | 454 kts | 313° |
| 2026-05-07 10:34 | 48.06944 | 3.52904 | 34029 ft | 455 kts | 313° |
| 2026-05-07 10:34 | 48.11301 | 3.46139 | 34027 ft | 455 kts | 313° |
| 2026-05-07 10:35 | 48.15678 | 3.39322 | 34025 ft | 456 kts | 313° |
| 2026-05-07 10:35 | 48.20068 | 3.32467 | 34023 ft | 456 kts | 313° |
| 2026-05-07 10:36 | 48.24437 | 3.25628 | 34027 ft | 456 kts | 313° |
| 2026-05-07 10:36 | 48.28818 | 3.18752 | 34032 ft | 456 kts | 313° |
| 2026-05-07 10:37 | 48.33161 | 3.11917 | 34032 ft | 457 kts | 313° |
| 2026-05-07 10:37 | 48.37545 | 3.05000 | 34031 ft | 457 kts | 313° |
| 2026-05-07 10:38 | 48.41731 | 2.97862 | 34003 ft | 455 kts | 301° |
| 2026-05-07 10:38 | 48.42995 | 2.93523 | 34054 ft | 454 kts | 285° |
| 2026-05-07 10:38 | 48.43767 | 2.88922 | 34047 ft | 456 kts | 284° |
| 2026-05-07 10:39 | 48.45464 | 2.79775 | 34026 ft | 454 kts | 285° |
| 2026-05-07 10:39 | 48.47195 | 2.70674 | 34041 ft | 454 kts | 286° |
| 2026-05-07 10:40 | 48.48928 | 2.61548 | 34028 ft | 454 kts | 286° |
| 2026-05-07 10:40 | 48.50652 | 2.52430 | 34038 ft | 454 kts | 285° |
| 2026-05-07 10:41 | 48.52374 | 2.43272 | 34040 ft | 455 kts | 285° |
| 2026-05-07 10:41 | 48.54081 | 2.34158 | 34036 ft | 454 kts | 285° |
| 2026-05-07 10:42 | 48.55791 | 2.24980 | 34039 ft | 454 kts | 285° |
| 2026-05-07 10:42 | 48.57383 | 2.15811 | 34039 ft | 453 kts | 281° |
| 2026-05-07 10:43 | 48.58657 | 2.06512 | 34033 ft | 454 kts | 281° |
| 2026-05-07 10:43 | 48.59949 | 1.97260 | 34042 ft | 453 kts | 281° |
| 2026-05-07 10:44 | 48.61246 | 1.87941 | 34046 ft | 454 kts | 281° |
| 2026-05-07 10:44 | 48.62529 | 1.78665 | 34030 ft | 453 kts | 281° |
| 2026-05-07 10:45 | 48.63809 | 1.69346 | 34031 ft | 454 kts | 281° |
| 2026-05-07 10:45 | 48.65075 | 1.60051 | 34029 ft | 454 kts | 281° |
| 2026-05-07 10:46 | 48.66332 | 1.50738 | 34028 ft | 454 kts | 281° |
| 2026-05-07 10:46 | 48.67588 | 1.41370 | 34027 ft | 454 kts | 281° |
| 2026-05-07 10:47 | 48.68833 | 1.32030 | 34027 ft | 454 kts | 280° |
| 2026-05-07 10:47 | 48.70065 | 1.22722 | 34023 ft | 454 kts | 280° |
| 2026-05-07 10:48 | 48.71301 | 1.13331 | 34025 ft | 454 kts | 280° |
| 2026-05-07 10:48 | 48.72521 | 1.03997 | 34027 ft | 453 kts | 280° |
| 2026-05-07 10:49 | 48.73728 | 0.94695 | 34028 ft | 453 kts | 280° |
| 2026-05-07 10:49 | 48.74938 | 0.85328 | 34026 ft | 454 kts | 280° |
| 2026-05-07 10:50 | 48.76138 | 0.76010 | 34025 ft | 454 kts | 280° |
| 2026-05-07 10:50 | 48.77338 | 0.66624 | 34025 ft | 455 kts | 280° |
| 2026-05-07 10:51 | 48.78531 | 0.57237 | 34023 ft | 454 kts | 280° |
| 2026-05-07 10:51 | 48.79942 | 0.47956 | 34024 ft | 454 kts | 286° |
| 2026-05-07 10:52 | 48.81644 | 0.38781 | 34021 ft | 454 kts | 285° |
| 2026-05-07 10:52 | 48.83314 | 0.29541 | 34026 ft | 454 kts | 284° |
| 2026-05-07 10:53 | 48.84969 | 0.20315 | 34027 ft | 454 kts | 284° |
| 2026-05-07 10:53 | 48.86606 | 0.11142 | 34028 ft | 454 kts | 284° |
| 2026-05-07 10:54 | 48.88246 | 0.01903 | 34026 ft | 455 kts | 284° |
| 2026-05-07 10:54 | 48.89887 | -0.07382 | 34026 ft | 456 kts | 284° |
| 2026-05-07 10:55 | 48.91519 | -0.16676 | 34025 ft | 456 kts | 284° |
| 2026-05-07 10:55 | 48.93139 | -0.25959 | 34021 ft | 455 kts | 284° |
| 2026-05-07 10:56 | 48.94700 | -0.35181 | 34020 ft | 454 kts | 283° |
| 2026-05-07 10:56 | 48.96264 | -0.44458 | 34020 ft | 453 kts | 283° |
| 2026-05-07 10:57 | 48.97816 | -0.53713 | 34025 ft | 454 kts | 283° |
| 2026-05-07 10:57 | 48.99360 | -0.62978 | 34016 ft | 454 kts | 283° |
| 2026-05-07 10:58 | 49.00909 | -0.72318 | 34013 ft | 455 kts | 283° |
| 2026-05-07 10:58 | 49.02443 | -0.81620 | 34012 ft | 455 kts | 283° |
| 2026-05-07 10:59 | 49.03978 | -0.90978 | 34011 ft | 455 kts | 283° |
| 2026-05-07 10:59 | 49.05498 | -1.00295 | 34009 ft | 454 kts | 283° |
| 2026-05-07 11:00 | 49.07005 | -1.09581 | 34007 ft | 454 kts | 283° |
| 2026-05-07 11:00 | 49.08510 | -1.18911 | 34000 ft | 454 kts | 283° |
| 2026-05-07 11:01 | 49.10019 | -1.28197 | 34040 ft | 453 kts | 283° |
| 2026-05-07 11:01 | 49.11526 | -1.37525 | 34007 ft | 454 kts | 283° |
| 2026-05-07 11:02 | 49.13025 | -1.46863 | 34011 ft | 455 kts | 283° |
| 2026-05-07 11:02 | 49.14520 | -1.56222 | 34020 ft | 455 kts | 283° |
| 2026-05-07 11:03 | 49.16003 | -1.65558 | 34022 ft | 455 kts | 282° |
| 2026-05-07 11:03 | 49.17479 | -1.74911 | 34027 ft | 455 kts | 282° |
| 2026-05-07 11:04 | 49.18945 | -1.84256 | 34031 ft | 454 kts | 282° |
| 2026-05-07 11:04 | 49.20412 | -1.93648 | 34032 ft | 454 kts | 282° |
| 2026-05-07 11:05 | 49.21854 | -2.02945 | 34032 ft | 453 kts | 282° |
| 2026-05-07 11:05 | 49.23431 | -2.12270 | 34031 ft | 454 kts | 283° |
| 2026-05-07 11:06 | 49.25034 | -2.21605 | 34030 ft | 455 kts | 283° |
| 2026-05-07 11:06 | 49.26622 | -2.30916 | 34030 ft | 455 kts | 283° |
| 2026-05-07 11:07 | 49.28210 | -2.40267 | 34028 ft | 455 kts | 283° |
| 2026-05-07 11:07 | 49.29798 | -2.49673 | 34026 ft | 455 kts | 283° |
| 2026-05-07 11:08 | 49.31365 | -2.58998 | 34025 ft | 456 kts | 283° |
| 2026-05-07 11:08 | 49.32930 | -2.68375 | 34028 ft | 455 kts | 282° |
| 2026-05-07 11:09 | 49.34485 | -2.77738 | 34027 ft | 455 kts | 282° |
| 2026-05-07 11:09 | 49.36034 | -2.87118 | 34025 ft | 455 kts | 282° |
| 2026-05-07 11:10 | 49.37578 | -2.96517 | 34017 ft | 455 kts | 282° |
| 2026-05-07 11:10 | 49.39113 | -3.05913 | 34015 ft | 455 kts | 283° |
| 2026-05-07 11:11 | 49.40636 | -3.15291 | 34012 ft | 456 kts | 283° |
| 2026-05-07 11:11 | 49.42156 | -3.24699 | 34009 ft | 456 kts | 283° |
| 2026-05-07 11:12 | 49.43670 | -3.34125 | 34009 ft | 456 kts | 282° |
| 2026-05-07 11:12 | 49.45176 | -3.43552 | 34008 ft | 457 kts | 282° |
| 2026-05-07 11:13 | 49.46681 | -3.53032 | 34001 ft | 457 kts | 282° |
| 2026-05-07 11:13 | 49.48175 | -3.62500 | 34005 ft | 457 kts | 283° |
| 2026-05-07 11:14 | 49.49659 | -3.71956 | 34001 ft | 457 kts | 282° |
| 2026-05-07 11:14 | 49.51135 | -3.81412 | 34005 ft | 457 kts | 282° |
| 2026-05-07 11:15 | 49.52607 | -3.90899 | 34001 ft | 457 kts | 282° |
| 2026-05-07 11:15 | 49.54073 | -4.00399 | 34003 ft | 458 kts | 282° |
| 2026-05-07 11:16 | 49.55537 | -4.09949 | 33997 ft | 458 kts | 282° |
| 2026-05-07 11:16 | 49.56987 | -4.19467 | 33997 ft | 458 kts | 282° |
| 2026-05-07 11:17 | 49.58431 | -4.28992 | 33999 ft | 459 kts | 282° |
| 2026-05-07 11:17 | 49.60924 | -4.37953 | 34019 ft | 463 kts | 305° |
| 2026-05-07 11:18 | 49.64587 | -4.46055 | 33987 ft | 464 kts | 302° |
| 2026-05-07 11:18 | 49.68130 | -4.54333 | 34001 ft | 463 kts | 302° |
| 2026-05-07 11:19 | 49.71663 | -4.62613 | 34000 ft | 464 kts | 304° |
| 2026-05-07 11:19 | 49.75678 | -4.70431 | 34004 ft | 465 kts | 307° |
| 2026-05-07 11:20 | 49.79690 | -4.78254 | 34007 ft | 465 kts | 306° |
| 2026-05-07 11:20 | 49.83683 | -4.86075 | 34007 ft | 465 kts | 306° |
| 2026-05-07 11:21 | 49.87678 | -4.93928 | 34008 ft | 465 kts | 306° |
| 2026-05-07 11:21 | 49.91651 | -5.01761 | 34007 ft | 465 kts | 306° |
| 2026-05-07 11:22 | 49.95629 | -5.09622 | 34008 ft | 466 kts | 306° |
| 2026-05-07 11:22 | 49.99635 | -5.17570 | 34012 ft | 466 kts | 306° |
| 2026-05-07 11:23 | 50.03593 | -5.25441 | 34011 ft | 466 kts | 306° |
| 2026-05-07 11:23 | 50.07562 | -5.33360 | 34016 ft | 466 kts | 306° |
| 2026-05-07 11:24 | 50.11538 | -5.41314 | 34010 ft | 467 kts | 306° |
| 2026-05-07 11:24 | 50.15514 | -5.49296 | 34006 ft | 468 kts | 306° |
| 2026-05-07 11:25 | 50.19495 | -5.57310 | 34004 ft | 468 kts | 306° |
| 2026-05-07 11:25 | 50.23449 | -5.65296 | 34005 ft | 468 kts | 306° |
| 2026-05-07 11:26 | 50.27401 | -5.73298 | 34007 ft | 467 kts | 306° |
| 2026-05-07 11:26 | 50.31357 | -5.81337 | 34004 ft | 468 kts | 305° |
| 2026-05-07 11:27 | 50.35302 | -5.89376 | 34003 ft | 468 kts | 306° |
| 2026-05-07 11:27 | 50.39242 | -5.97432 | 33997 ft | 468 kts | 306° |
| 2026-05-07 11:28 | 50.43191 | -6.05528 | 33998 ft | 469 kts | 306° |
| 2026-05-07 11:28 | 50.47135 | -6.13642 | 33995 ft | 469 kts | 306° |
| 2026-05-07 11:29 | 50.51067 | -6.21753 | 33990 ft | 468 kts | 306° |
| 2026-05-07 11:29 | 50.54991 | -6.29876 | 33987 ft | 468 kts | 306° |
| 2026-05-07 11:30 | 50.58911 | -6.38013 | 33987 ft | 469 kts | 306° |
| 2026-05-07 11:30 | 50.62836 | -6.46187 | 33988 ft | 469 kts | 306° |
| 2026-05-07 11:31 | 50.66755 | -6.54375 | 33988 ft | 470 kts | 306° |
| 2026-05-07 11:31 | 50.70687 | -6.62617 | 33988 ft | 469 kts | 306° |
| 2026-05-07 11:32 | 50.76539 | -6.74927 | 33992 ft | 470 kts | 305° |
| 2026-05-07 11:33 | 50.80431 | -6.83148 | 33991 ft | 470 kts | 304° |
| 2026-05-07 11:33 | 50.84323 | -6.91398 | 33988 ft | 471 kts | 304° |
| 2026-05-07 11:34 | 50.88217 | -6.99672 | 33988 ft | 471 kts | 304° |
| 2026-05-07 11:34 | 50.92099 | -7.07954 | 33991 ft | 470 kts | 305° |
| 2026-05-07 11:35 | 50.96450 | -7.15634 | 34009 ft | 472 kts | 317° |
| 2026-05-07 11:35 | 51.01275 | -7.22677 | 33981 ft | 472 kts | 315° |
| 2026-05-07 11:36 | 51.06045 | -7.29788 | 33986 ft | 473 kts | 315° |
| 2026-05-07 11:36 | 51.10828 | -7.36951 | 33979 ft | 473 kts | 315° |
| 2026-05-07 11:37 | 51.15610 | -7.44137 | 33978 ft | 474 kts | 315° |
| 2026-05-07 11:37 | 51.20388 | -7.51337 | 33982 ft | 476 kts | 315° |
| 2026-05-07 11:38 | 51.24886 | -7.58974 | 33963 ft | 471 kts | 300° |
| 2026-05-07 11:38 | 51.28006 | -7.68129 | 33982 ft | 472 kts | 297° |
| 2026-05-07 11:39 | 51.31157 | -7.77174 | 33994 ft | 470 kts | 297° |
| 2026-05-07 11:39 | 51.34333 | -7.86275 | 33992 ft | 470 kts | 297° |
| 2026-05-07 11:40 | 51.37516 | -7.95425 | 33988 ft | 471 kts | 297° |
| 2026-05-07 11:40 | 51.40678 | -8.04548 | 33982 ft | 471 kts | 297° |
| 2026-05-07 11:41 | 51.43825 | -8.13662 | 33977 ft | 471 kts | 297° |
| 2026-05-07 11:41 | 51.46988 | -8.22854 | 33978 ft | 471 kts | 297° |
| 2026-05-07 11:42 | 51.50127 | -8.32009 | 33971 ft | 470 kts | 297° |
| 2026-05-07 11:42 | 51.53258 | -8.41177 | 33976 ft | 470 kts | 297° |
| 2026-05-07 11:43 | 51.56387 | -8.50370 | 33982 ft | 469 kts | 297° |
| 2026-05-07 11:43 | 51.59487 | -8.59510 | 33980 ft | 469 kts | 297° |
| 2026-05-07 11:44 | 51.62591 | -8.68699 | 33980 ft | 469 kts | 296° |
| 2026-05-07 11:44 | 51.65675 | -8.77859 | 33974 ft | 468 kts | 296° |
| 2026-05-07 11:45 | 51.68769 | -8.87082 | 33970 ft | 468 kts | 296° |
| 2026-05-07 11:45 | 51.71844 | -8.96291 | 33970 ft | 468 kts | 296° |
| 2026-05-07 11:46 | 51.74902 | -9.05475 | 33972 ft | 467 kts | 297° |
| 2026-05-07 11:46 | 51.77960 | -9.14693 | 33961 ft | 467 kts | 297° |
| 2026-05-07 11:47 | 51.81005 | -9.23907 | 33958 ft | 466 kts | 297° |
| 2026-05-07 11:47 | 51.84019 | -9.33063 | 33950 ft | 466 kts | 297° |